Hovedside
METAR-TAF:

METAR-TAF

Lufthavner :

Bromma lufthavn

Stockholm, Sverige

breddegrad: 59-21N, lengdegrad: 017-57E, høyde over havet: 14 m

Gjeldene værobservasjon

Denne rapporten ble laget for 25 minutter siden, klokken 18:20 UTC
Vind 4 kt fra Nord, skiftende mellom Nord-nordvest og Nordøst
Temperatur 0°C
Luftfuktighet 86%
Trykk 1038 hPa
Sikt 10 km eller mer
Få skyer i en høyde av 2900 ft

METAR: ESSB 191820Z 01004KT 340V050 9999 FEW029 M00/M02 Q1038 R30/09//95

Tid: 19:45 (18:45 UTC)

Varsel

Denne rapporten ble laget for 1 time og 15 minutter siden, klokken 17:30 UTC
Varsel gyldig fra 19. klokken 18 UTC til 19. klokken 21 UTC
Vind 5 kt fra Nord-nordøst
Sikt 10 km eller mer
Spredte skyer i en høyde av 2500 ft

TAF: ESSB 191730Z 1918/1921 02005KT 9999 SCT025

Værobservasjoner og værvarsel for over 4000 flyplasser (METAR- og TAF-rapporter).

Tilgjengelige stasjoner er representert av de røde og gule prikkene på kartet.

Hold musepekeren over prikken for å se navnet på stasjonen.

Klikk så for å se værobservasjoner og -varsler.

For å forandre kartet kan du klikke på den grønne knappen med svart kryss for å zoome inn, på den grønne knappen med strek for å zoome ut, eller på de grønne pilene for å se tilstøtende kart.


METAR-TAF: